createdAt,value
2019-04-05T00:01:53.702Z,94.19
2019-04-05T00:04:22.165Z,94.53
2019-04-05T00:06:50.590Z,94.87
2019-04-05T00:09:19.114Z,94.63
2019-04-05T00:11:47.503Z,94.68
2019-04-05T00:14:15.922Z,94.77
2019-04-05T00:16:44.325Z,94.80
2019-04-05T00:19:12.723Z,94.78
2019-04-05T00:21:41.139Z,94.71
2019-04-05T00:24:09.559Z,94.26
2019-04-05T00:26:37.950Z,93.80
2019-04-05T00:29:06.480Z,93.97
2019-04-05T00:31:34.879Z,93.93
2019-04-05T00:34:03.279Z,94.24
2019-04-05T00:36:31.687Z,94.37
2019-04-05T00:39:00.096Z,94.56
2019-04-05T00:41:28.510Z,94.84
2019-04-05T00:43:56.912Z,94.70
2019-04-05T00:46:25.382Z,93.94
2019-04-05T00:48:53.787Z,94.12
2019-04-05T00:51:22.547Z,94.40
2019-04-05T00:53:51.129Z,94.48
2019-04-05T00:56:19.579Z,94.99
2019-04-05T00:58:48.124Z,95.11
2019-04-05T01:01:16.550Z,94.83
2019-04-05T01:03:44.965Z,94.54
2019-04-05T01:06:13.433Z,94.74
2019-04-05T01:08:42.089Z,94.84
2019-04-05T01:11:10.572Z,95.18
2019-04-05T01:13:39.237Z,95.37
2019-04-05T01:16:07.629Z,95.30
2019-04-05T01:18:36.111Z,95.35
2019-04-05T01:21:05.650Z,95.12
2019-04-05T01:23:34.896Z,94.88
2019-04-05T01:26:03.673Z,94.98
2019-04-05T01:28:32.302Z,95.33
2019-04-05T01:31:00.874Z,95.23
2019-04-05T01:33:29.404Z,95.31
2019-04-05T01:35:57.848Z,95.74
2019-04-05T01:38:26.242Z,95.80
2019-04-05T01:40:57.344Z,95.67
2019-04-05T01:43:25.911Z,95.44
2019-04-05T01:45:54.866Z,95.48
2019-04-05T01:48:23.266Z,95.65
2019-04-05T01:50:51.755Z,95.67
2019-04-05T01:53:20.398Z,95.64
2019-04-05T01:55:48.801Z,95.53
2019-04-05T01:58:17.223Z,95.62
2019-04-05T02:00:45.761Z,95.59
2019-04-05T02:03:14.173Z,95.50
2019-04-05T02:05:43.230Z,95.44
2019-04-05T02:08:11.723Z,95.47
2019-04-05T02:10:40.271Z,95.38
2019-04-05T02:13:08.773Z,95.24
2019-04-05T02:15:38.006Z,95.44
2019-04-05T02:18:06.487Z,95.46
2019-04-05T02:20:34.880Z,95.26
2019-04-05T02:23:03.484Z,95.07
2019-04-05T02:25:31.967Z,95.14
2019-04-05T02:28:00.386Z,94.99
2019-04-05T02:30:29.030Z,95.22
2019-04-05T02:32:57.553Z,95.06
2019-04-05T02:35:26.306Z,95.46
2019-04-05T02:37:54.771Z,95.65
2019-04-05T02:40:26.633Z,95.91
2019-04-05T02:42:57.707Z,96.05
2019-04-05T02:45:29.182Z,96.05
2019-04-05T02:48:00.632Z,96.13
2019-04-05T02:50:31.793Z,95.98
2019-04-05T02:53:03.259Z,95.77
2019-04-05T02:55:32.723Z,95.63
2019-04-05T02:58:03.454Z,95.74
2019-04-05T03:00:33.063Z,95.93
2019-04-05T03:03:03.503Z,96.10
2019-04-05T03:05:32.276Z,96.30
2019-04-05T03:08:00.769Z,96.13
2019-04-05T03:10:55.072Z,96.15
2019-04-05T03:13:24.746Z,96.29
2019-04-05T03:15:56.171Z,96.37
2019-04-05T03:18:27.720Z,96.38
2019-04-05T03:20:59.163Z,96.23
2019-04-05T03:23:29.597Z,96.24
2019-04-05T03:26:00.907Z,96.62
2019-04-05T03:28:32.402Z,96.75
2019-04-05T03:31:01.988Z,96.78
2019-04-05T03:33:32.099Z,96.82
2019-04-05T03:36:00.945Z,96.79
2019-04-05T03:38:29.507Z,96.71
2019-04-05T03:40:58.469Z,96.67
2019-04-05T03:43:27.405Z,96.79
2019-04-05T03:45:56.244Z,96.75
2019-04-05T03:48:24.897Z,96.65
2019-04-05T03:50:53.296Z,96.48
2019-04-05T03:53:22.758Z,96.62
2019-04-05T03:55:51.310Z,96.75
2019-04-05T03:58:20.578Z,96.51
2019-04-05T04:00:49.341Z,96.28
2019-04-05T04:03:18.165Z,96.48
2019-04-05T04:05:46.747Z,96.70
2019-04-05T04:08:15.298Z,96.87
2019-04-05T04:10:44.018Z,96.92
2019-04-05T04:13:12.621Z,97.12
2019-04-05T04:15:41.243Z,97.12
2019-04-05T04:18:10.077Z,97.15
2019-04-05T04:20:41.562Z,97.15
2019-04-05T04:23:10.603Z,97.16
2019-04-05T04:25:40.030Z,97.30
2019-04-05T04:28:08.972Z,97.41
2019-04-05T04:30:38.254Z,97.44
2019-04-05T04:33:06.922Z,97.49
2019-04-05T04:35:35.775Z,97.47
2019-04-05T04:38:04.553Z,97.54
2019-04-05T04:40:33.332Z,97.52
2019-04-05T04:43:02.288Z,97.48
2019-04-05T04:45:32.138Z,97.43
2019-04-05T04:48:00.669Z,97.50
2019-04-05T04:50:29.921Z,97.49
2019-04-05T04:52:58.975Z,97.47
2019-04-05T04:55:27.770Z,97.29
2019-04-05T04:57:56.544Z,97.02
2019-04-05T05:00:26.207Z,97.12
2019-04-05T05:02:54.752Z,97.21
2019-04-05T05:05:23.597Z,97.46
2019-04-05T05:07:52.574Z,97.50
2019-04-05T05:10:21.593Z,97.60
2019-04-05T05:12:50.330Z,97.62
2019-04-05T05:15:21.100Z,97.44
2019-04-05T05:17:58.403Z,97.18
2019-04-05T05:20:20.411Z,97.18
2019-04-05T05:22:48.983Z,97.07
2019-04-05T05:25:17.726Z,97.17
2019-04-05T05:27:46.591Z,97.23
2019-04-05T05:30:15.142Z,97.47
2019-04-05T05:32:43.687Z,97.51
2019-04-05T05:35:12.382Z,97.61
2019-04-05T05:37:41.044Z,97.46
2019-04-05T05:40:10.096Z,97.51
2019-04-05T05:42:38.628Z,97.70
2019-04-05T05:45:07.803Z,97.79
2019-04-05T05:47:36.358Z,97.91
2019-04-05T05:50:06.798Z,97.66
2019-04-05T05:52:36.184Z,97.52
2019-04-05T05:55:05.727Z,97.72
2019-04-05T05:57:34.157Z,97.51
2019-04-05T06:00:02.721Z,97.58
2019-04-05T06:02:31.115Z,97.54
2019-04-05T06:04:59.529Z,97.63
2019-04-05T06:07:27.993Z,97.87
2019-04-05T06:09:56.473Z,97.71
2019-04-05T06:12:24.921Z,97.60
2019-04-05T06:14:53.313Z,97.71
2019-04-05T06:17:21.788Z,97.53
2019-04-05T06:19:50.209Z,97.45
2019-04-05T06:22:18.625Z,97.53
2019-04-05T06:24:47.053Z,97.40
2019-04-05T06:27:15.457Z,97.26
2019-04-05T06:29:43.885Z,97.25
2019-04-05T06:32:12.338Z,97.24
2019-04-05T06:34:40.746Z,97.29
2019-04-05T06:37:09.179Z,97.16
2019-04-05T06:39:37.604Z,96.78
2019-04-05T06:42:06.075Z,96.42
2019-04-05T06:44:34.493Z,96.43
2019-04-05T06:47:02.899Z,96.39
2019-04-05T06:49:31.936Z,96.13
2019-04-05T06:52:00.379Z,95.92
2019-04-05T06:54:28.768Z,95.70
2019-04-05T06:56:57.173Z,95.64
2019-04-05T06:59:25.582Z,95.66
2019-04-05T07:01:54.064Z,95.54
2019-04-05T07:04:22.468Z,95.04
2019-04-05T07:06:50.894Z,95.04
2019-04-05T07:09:19.303Z,94.80
2019-04-05T07:11:47.782Z,94.84
2019-04-05T07:14:16.167Z,94.81
2019-04-05T07:16:44.613Z,94.99
2019-04-05T07:19:13.104Z,95.10
2019-04-05T07:21:41.512Z,95.33
2019-04-05T07:24:09.915Z,95.31
2019-04-05T07:26:38.335Z,95.07
2019-04-05T07:29:06.752Z,95.01
2019-04-05T07:31:35.185Z,95.05
2019-04-05T07:34:03.663Z,95.08
2019-04-05T07:36:32.157Z,95.05
2019-04-05T07:39:00.645Z,94.86
2019-04-05T07:41:31.690Z,94.53
2019-04-05T07:43:59.193Z,94.59
2019-04-05T07:46:27.627Z,94.16
2019-04-05T07:48:56.043Z,93.62
2019-04-05T07:51:24.519Z,93.72
2019-04-05T07:53:52.930Z,93.66
2019-04-05T07:56:21.336Z,93.29
2019-04-05T07:58:49.767Z,92.76
2019-04-05T08:01:18.281Z,92.99
2019-04-05T08:03:46.778Z,92.50
2019-04-05T08:06:16.113Z,91.96
2019-04-05T08:08:56.952Z,91.55
2019-04-05T08:11:26.648Z,91.81
2019-04-05T08:13:57.988Z,91.88
2019-04-05T08:16:26.489Z,91.95
2019-04-05T08:18:57.982Z,91.62
2019-04-05T08:21:25.099Z,91.06
2019-04-05T08:23:53.593Z,91.09
2019-04-05T08:26:22.009Z,90.32
2019-04-05T08:28:50.394Z,89.90
2019-04-05T08:31:18.823Z,89.89
2019-04-05T08:33:47.349Z,89.58
2019-04-05T08:36:15.768Z,89.76
2019-04-05T08:38:44.254Z,89.95
2019-04-05T08:41:12.841Z,89.75
2019-04-05T08:43:41.239Z,89.16
2019-04-05T08:46:09.766Z,89.03
2019-04-05T08:48:38.285Z,88.48
2019-04-05T08:51:06.824Z,88.28
2019-04-05T08:53:35.254Z,87.71
2019-04-05T08:56:03.667Z,87.77
2019-04-05T08:58:33.543Z,87.25
2019-04-05T09:01:02.407Z,86.85
2019-04-05T09:03:30.895Z,86.85
2019-04-05T09:05:59.371Z,86.49
2019-04-05T09:08:27.916Z,86.82
2019-04-05T09:10:56.335Z,86.59
2019-04-05T09:13:24.739Z,85.76
2019-04-05T09:15:53.147Z,85.62
2019-04-05T09:18:21.547Z,85.48
2019-04-05T09:20:49.939Z,85.12
2019-04-05T09:23:18.372Z,85.86
2019-04-05T09:25:46.772Z,85.31
2019-04-05T09:28:15.164Z,85.02
2019-04-05T09:30:43.590Z,85.08
2019-04-05T09:33:12.124Z,84.53
2019-04-05T09:35:40.522Z,84.75
2019-04-05T09:38:08.946Z,84.25
2019-04-05T09:40:37.432Z,84.44
2019-04-05T09:43:05.985Z,84.12
2019-04-05T09:45:34.529Z,84.31
2019-04-05T09:48:02.954Z,84.41
2019-04-05T09:50:31.433Z,84.10
2019-04-05T09:52:59.934Z,84.52
2019-04-05T09:55:28.354Z,83.58
2019-04-05T09:57:56.755Z,83.32
2019-04-05T10:00:26.963Z,83.11
2019-04-05T10:02:55.438Z,83.14
2019-04-05T10:05:23.902Z,82.77
2019-04-05T10:07:55.411Z,82.88
2019-04-05T10:10:22.743Z,83.12
2019-04-05T10:12:51.148Z,82.20
2019-04-05T10:15:21.697Z,82.66
2019-04-05T10:17:49.786Z,82.53
2019-04-05T10:20:18.241Z,81.90
2019-04-05T10:22:46.682Z,81.64
2019-04-05T10:25:15.414Z,81.31
2019-04-05T10:27:43.824Z,81.23
2019-04-05T10:30:13.234Z,80.92
2019-04-05T10:32:41.630Z,80.78
2019-04-05T10:35:10.259Z,80.81
2019-04-05T10:37:38.778Z,80.44
2019-04-05T10:40:07.817Z,78.57
2019-04-05T10:42:37.532Z,78.59
2019-04-05T10:45:08.621Z,79.67
2019-04-05T10:47:37.168Z,79.16
2019-04-05T10:50:08.311Z,78.56
2019-04-05T10:52:36.839Z,77.95
2019-04-05T10:55:06.771Z,78.02
2019-04-05T10:57:35.171Z,78.03
2019-04-05T11:00:05.867Z,78.27
2019-04-05T11:02:34.264Z,77.70
2019-04-05T11:05:02.809Z,77.04
2019-04-05T11:07:31.189Z,77.44
2019-04-05T11:09:59.581Z,77.29
2019-04-05T11:12:28.031Z,78.41
2019-04-05T11:14:56.422Z,77.82
2019-04-05T11:17:24.845Z,78.49
2019-04-05T11:19:53.242Z,78.34
2019-04-05T11:22:21.639Z,77.82
2019-04-05T11:24:50.135Z,78.08
2019-04-05T11:27:18.676Z,78.34
2019-04-05T11:29:47.165Z,78.42
2019-04-05T11:32:15.726Z,77.87
2019-04-05T11:34:44.191Z,77.87
2019-04-05T11:37:12.753Z,77.66
2019-04-05T11:39:41.336Z,78.09
2019-04-05T11:42:09.893Z,77.79
2019-04-05T11:44:40.399Z,76.42
2019-04-05T11:47:08.862Z,77.65
2019-04-05T11:49:38.410Z,76.42
2019-04-05T11:52:06.889Z,76.46
2019-04-05T11:54:35.324Z,75.89
2019-04-05T11:57:03.787Z,76.70
2019-04-05T11:59:32.221Z,76.24
2019-04-05T12:02:08.445Z,76.11
2019-04-05T12:04:36.878Z,76.03
2019-04-05T12:07:05.430Z,76.04
2019-04-05T12:09:33.833Z,76.71
2019-04-05T12:12:02.250Z,75.39
2019-04-05T12:14:30.810Z,76.48
2019-04-05T12:16:59.253Z,76.50
2019-04-05T12:19:27.650Z,75.67
2019-04-05T12:21:56.042Z,75.26
2019-04-05T12:24:24.469Z,76.65
2019-04-05T12:26:52.882Z,76.80
2019-04-05T12:29:21.305Z,76.75
2019-04-05T12:31:49.721Z,76.89
2019-04-05T12:34:21.391Z,77.53
2019-04-05T12:36:48.291Z,77.33
2019-04-05T12:39:16.689Z,77.50
2019-04-05T12:41:45.167Z,77.28
2019-04-05T12:44:15.112Z,78.03
2019-04-05T12:46:45.870Z,77.63
2019-04-05T12:49:15.311Z,77.56
2019-04-05T12:51:45.558Z,77.71
2019-04-05T12:54:14.334Z,77.37
2019-04-05T12:56:42.735Z,77.75
2019-04-05T12:59:11.214Z,77.72
2019-04-05T13:01:39.632Z,77.50
2019-04-05T13:04:08.049Z,77.49
2019-04-05T13:06:36.464Z,77.08
2019-04-05T13:09:08.870Z,76.78
2019-04-05T13:11:37.286Z,76.51
2019-04-05T13:14:05.692Z,77.47
2019-04-05T13:16:34.100Z,77.53
2019-04-05T13:19:02.615Z,77.04
2019-04-05T13:21:33.003Z,77.41
2019-04-05T13:24:04.019Z,76.92
2019-04-05T13:26:31.305Z,77.53
2019-04-05T13:28:59.732Z,77.72
2019-04-05T13:31:28.153Z,77.92
2019-04-05T13:33:56.652Z,77.52
2019-04-05T13:36:25.046Z,78.04
2019-04-05T13:38:55.059Z,77.79
2019-04-05T13:41:24.196Z,78.35
2019-04-05T13:43:52.663Z,78.20
2019-04-05T13:46:22.813Z,78.37
2019-04-05T13:48:51.216Z,79.02
2019-04-05T13:51:27.909Z,79.02
2019-04-05T13:53:49.839Z,78.57
2019-04-05T13:56:18.325Z,78.30
2019-04-05T13:58:47.026Z,78.05
2019-04-05T14:01:15.602Z,77.86
2019-04-05T14:03:44.032Z,77.85
2019-04-05T14:06:12.513Z,77.71
2019-04-05T14:08:41.999Z,78.06
2019-04-05T14:11:11.108Z,78.22
2019-04-05T14:13:42.649Z,81.08
2019-04-05T14:16:12.259Z,79.27
2019-04-05T14:18:40.267Z,78.74
2019-04-05T14:21:08.660Z,78.74
2019-04-05T14:23:37.102Z,79.10
2019-04-05T14:26:05.573Z,78.28
2019-04-05T14:28:34.240Z,78.44
2019-04-05T14:31:03.266Z,79.10
2019-04-05T14:33:31.672Z,79.07
2019-04-05T14:36:00.068Z,78.98
2019-04-05T14:38:31.162Z,78.89
2019-04-05T14:40:58.729Z,78.94
2019-04-05T14:43:27.120Z,79.28
2019-04-05T14:45:55.611Z,79.63
2019-04-05T14:48:27.331Z,79.17
2019-04-05T14:50:57.481Z,79.43
2019-04-05T14:53:24.499Z,79.51
2019-04-05T14:55:52.987Z,79.92
2019-04-05T14:58:21.417Z,79.91
2019-04-05T15:00:49.897Z,80.12
2019-04-05T15:03:18.317Z,80.31
2019-04-05T15:05:46.845Z,80.22
2019-04-05T15:08:15.253Z,80.40
2019-04-05T15:10:43.670Z,80.78
2019-04-05T15:13:12.076Z,80.58
2019-04-05T15:15:40.557Z,80.52
2019-04-05T15:18:08.963Z,80.51
2019-04-05T15:20:37.501Z,80.67
2019-04-05T15:23:06.052Z,80.71
2019-04-05T15:25:34.481Z,81.24
2019-04-05T15:28:02.928Z,81.08
2019-04-05T15:30:31.431Z,80.85
2019-04-05T15:33:01.434Z,81.17
2019-04-05T15:35:29.856Z,81.26
2019-04-05T15:38:01.418Z,81.34
2019-04-05T15:40:28.733Z,81.64
2019-04-05T15:42:58.945Z,81.37
2019-04-05T15:45:27.439Z,81.71
2019-04-05T15:47:55.830Z,81.86
2019-04-05T15:50:24.327Z,82.34
2019-04-05T15:52:52.756Z,81.99
2019-04-05T15:55:21.234Z,81.94
2019-04-05T15:57:49.719Z,82.29
2019-04-05T16:00:21.886Z,82.65
2019-04-05T16:02:50.435Z,82.33
2019-04-05T16:05:19.782Z,82.47
2019-04-05T16:07:48.182Z,82.69
2019-04-05T16:10:16.898Z,83.04
2019-04-05T16:12:45.437Z,83.21
2019-04-05T16:15:14.111Z,83.35
2019-04-05T16:17:42.545Z,83.51
2019-04-05T16:20:12.111Z,83.15
2019-04-05T16:22:40.503Z,83.50
2019-04-05T16:25:09.563Z,83.41
2019-04-05T16:27:38.141Z,83.64
2019-04-05T16:30:08.110Z,83.85
2019-04-05T16:32:36.484Z,84.11
2019-04-05T16:35:06.729Z,84.34
2019-04-05T16:37:35.177Z,84.26
2019-04-05T16:40:05.211Z,84.29
2019-04-05T16:42:33.647Z,84.72
2019-04-05T16:45:02.065Z,84.36
2019-04-05T16:47:30.459Z,84.24
2019-04-05T16:49:58.946Z,84.08
2019-04-05T16:52:27.376Z,84.47
2019-04-05T16:54:55.801Z,84.38
2019-04-05T16:57:24.206Z,84.00
2019-04-05T16:59:52.626Z,84.54
2019-04-05T17:02:21.029Z,84.46
2019-04-05T17:04:49.461Z,84.42
2019-04-05T17:07:17.894Z,84.78
2019-04-05T17:09:46.398Z,84.82
2019-04-05T17:12:14.804Z,84.70
2019-04-05T17:14:43.225Z,84.82
2019-04-05T17:17:11.697Z,84.96
2019-04-05T17:19:40.088Z,84.82
2019-04-05T17:22:08.505Z,85.11
2019-04-05T17:24:44.653Z,84.93
2019-04-05T17:27:13.170Z,85.06
2019-04-05T17:29:41.578Z,85.26
2019-04-05T17:32:09.985Z,85.48
2019-04-05T17:34:38.496Z,85.41
2019-04-05T17:37:06.906Z,85.41
2019-04-05T17:39:40.227Z,85.70
2019-04-05T17:42:12.112Z,85.71
2019-04-05T17:44:40.639Z,85.96
2019-04-05T17:47:09.155Z,86.02
2019-04-05T17:49:37.753Z,85.80
2019-04-05T17:52:06.347Z,86.03
2019-04-05T17:54:34.866Z,86.38
2019-04-05T17:57:03.359Z,86.17
2019-04-05T17:59:32.047Z,86.10
2019-04-05T18:02:00.641Z,86.17
2019-04-05T18:04:29.045Z,86.21
2019-04-05T18:06:57.484Z,86.41
2019-04-05T18:09:27.308Z,86.59
2019-04-05T18:11:56.098Z,86.58
2019-04-05T18:14:24.530Z,86.72
2019-04-05T18:16:52.911Z,87.20
2019-04-05T18:19:21.335Z,86.83
2019-04-05T18:21:49.736Z,86.86
2019-04-05T18:24:18.160Z,86.78
2019-04-05T18:26:46.552Z,86.72
2019-04-05T18:29:14.960Z,86.98
2019-04-05T18:31:43.365Z,86.85
2019-04-05T18:34:11.818Z,86.89
2019-04-05T18:36:40.201Z,86.89
2019-04-05T18:39:08.921Z,86.79
2019-04-05T18:41:37.453Z,86.89
2019-04-05T18:44:07.358Z,87.20
2019-04-05T18:46:35.753Z,87.22
2019-04-05T18:49:04.252Z,87.14
2019-04-05T18:51:32.700Z,87.28
2019-04-05T18:54:01.124Z,87.43
2019-04-05T18:56:29.591Z,87.38
2019-04-05T18:58:58.052Z,87.48
2019-04-05T19:01:26.463Z,87.73
2019-04-05T19:03:54.861Z,87.82
2019-04-05T19:06:23.348Z,87.71
2019-04-05T19:08:51.811Z,87.95
2019-04-05T19:11:20.285Z,88.03
2019-04-05T19:14:00.374Z,88.04
2019-04-05T19:16:18.912Z,88.13
2019-04-05T19:18:48.861Z,87.99
2019-04-05T19:21:17.266Z,88.25
2019-04-05T19:23:51.145Z,88.39
2019-04-05T19:26:15.941Z,88.49
2019-04-05T19:28:44.343Z,88.56
2019-04-05T19:48:43.769Z,88.68
2019-04-05T19:51:12.185Z,88.76
2019-04-05T19:53:40.596Z,88.84
2019-04-05T19:56:09.019Z,88.77
2019-04-05T19:58:37.418Z,89.03
2019-04-05T20:01:05.927Z,88.84
2019-04-05T20:03:34.328Z,88.86
2019-04-05T20:06:02.743Z,88.91
2019-04-05T20:08:31.159Z,88.88
2019-04-05T20:10:59.558Z,89.12
2019-04-05T20:13:28.069Z,89.21
2019-04-05T20:15:56.560Z,89.08
2019-04-05T20:18:24.982Z,89.01
2019-04-05T20:20:53.383Z,88.97
2019-04-05T20:23:22.260Z,88.89
2019-04-05T20:25:50.689Z,88.94
2019-04-05T20:28:19.074Z,89.03
2019-04-05T20:30:47.500Z,88.93
2019-04-05T20:33:15.916Z,89.04
2019-04-05T20:35:44.338Z,89.19
2019-04-05T20:38:12.772Z,89.15
2019-04-05T20:40:41.531Z,89.24
2019-04-05T20:43:09.935Z,89.22
2019-04-05T20:45:38.358Z,89.45
2019-04-05T20:48:06.838Z,89.04
2019-04-05T20:50:35.237Z,89.25
2019-04-05T20:53:03.806Z,89.44
2019-04-05T20:55:32.231Z,89.33
2019-04-05T20:58:00.636Z,89.44
2019-04-05T21:00:29.051Z,89.94
2019-04-05T21:02:57.475Z,89.90
2019-04-05T21:05:25.910Z,89.93
2019-04-05T21:07:54.323Z,89.83
2019-04-05T21:10:22.727Z,89.91
2019-04-05T21:12:51.151Z,89.71
2019-04-05T21:15:19.549Z,89.80
2019-04-05T21:17:47.948Z,89.66
2019-04-05T21:20:16.537Z,89.65
2019-04-05T21:22:44.933Z,89.81
2019-04-05T21:25:13.425Z,89.74
2019-04-05T21:27:41.879Z,89.86
2019-04-05T21:30:10.541Z,89.94
2019-04-05T21:32:39.004Z,89.90
2019-04-05T21:35:07.780Z,89.96
2019-04-05T21:37:36.166Z,89.94
2019-04-05T21:40:06.005Z,90.05
2019-04-05T21:42:34.421Z,89.80
2019-04-05T21:45:02.998Z,89.52
2019-04-05T21:47:31.401Z,89.89
2019-04-05T21:49:59.824Z,89.82
2019-04-05T21:52:28.286Z,90.02
2019-04-05T21:54:56.689Z,90.22
2019-04-05T21:57:25.120Z,90.50
2019-04-05T21:59:53.535Z,90.50
2019-04-05T22:02:22.154Z,90.28
2019-04-05T22:04:50.584Z,90.47
2019-04-05T22:07:19.364Z,90.32
2019-04-05T22:09:47.766Z,90.33
2019-04-05T22:12:16.183Z,90.03
2019-04-05T22:14:44.848Z,90.21
2019-04-05T22:17:13.272Z,90.50
2019-04-05T22:19:41.677Z,90.47
2019-04-05T22:22:10.097Z,90.44
2019-04-05T22:24:38.495Z,90.34
2019-04-05T22:27:06.913Z,90.30
2019-04-05T22:29:35.405Z,90.46
2019-04-05T22:32:03.878Z,90.58
2019-04-05T22:34:32.308Z,90.61
2019-04-05T22:37:00.706Z,90.52
2019-04-05T22:39:29.114Z,90.40
2019-04-05T22:41:57.512Z,90.44
2019-04-05T22:44:37.483Z,90.62
2019-04-05T22:46:56.440Z,90.68
2019-04-05T22:49:24.926Z,90.63
2019-04-05T22:51:53.758Z,90.56
2019-04-05T22:54:22.184Z,90.73
2019-04-05T22:56:50.559Z,90.62
2019-04-05T22:59:19.436Z,90.57
2019-04-05T23:01:47.884Z,90.41
2019-04-05T23:04:16.382Z,90.44
2019-04-05T23:06:45.854Z,90.49
2019-04-05T23:09:14.328Z,90.42
2019-04-05T23:11:42.905Z,90.62
2019-04-05T23:14:11.330Z,90.97
2019-04-05T23:16:39.750Z,91.00
2019-04-05T23:19:08.167Z,91.01
2019-04-05T23:21:36.654Z,91.01
2019-04-05T23:24:05.189Z,90.69
2019-04-05T23:26:33.615Z,90.83
2019-04-05T23:29:01.952Z,90.72
2019-04-05T23:31:30.518Z,90.70
2019-04-05T23:33:59.036Z,90.86
2019-04-05T23:36:27.842Z,90.94
2019-04-05T23:38:56.304Z,90.75
2019-04-05T23:41:24.714Z,90.70
2019-04-05T23:43:53.104Z,90.87
2019-04-05T23:46:21.524Z,91.05
2019-04-05T23:48:49.941Z,90.73
2019-04-05T23:51:18.332Z,91.12
2019-04-05T23:53:46.806Z,91.10
2019-04-05T23:56:15.235Z,91.26
2019-04-05T23:58:43.636Z,91.40
